createdAt,value
2022-11-29T00:00:03.237Z,1005.6637522495586
2022-11-29T00:15:01.464Z,1005.6679288985073
2022-11-29T00:30:02.173Z,1005.6657263281303
2022-11-29T00:45:01.806Z,1005.7180084739272
2022-11-29T01:00:02.406Z,1005.7597335182045
2022-11-29T01:15:02.027Z,1005.881662879636
2022-11-29T01:30:01.700Z,1005.8816307504992
2022-11-29T01:45:02.304Z,1005.992297384509
2022-11-29T02:00:01.890Z,1006.0507621436004
2022-11-29T02:15:01.508Z,1006.1238525597389
2022-11-29T02:30:02.177Z,1006.2197490679897
2022-11-29T02:45:01.802Z,1006.2323475290236
2022-11-29T03:00:01.486Z,1006.3563857461726
2022-11-29T03:15:02.132Z,1006.4932019591605
2022-11-29T03:30:01.761Z,1006.6433995076949
2022-11-29T03:45:01.395Z,1006.7186221004092
2022-11-29T04:00:02.015Z,1006.7467805007819
2022-11-29T04:15:01.662Z,1006.7634634243676
2022-11-29T04:30:01.332Z,1006.8667992842351
2022-11-29T04:45:01.981Z,1006.9002969191423
2022-11-29T05:00:01.611Z,1007.1316542920308
2022-11-29T05:15:02.264Z,1007.1969347372528
2022-11-29T05:30:01.896Z,1007.3366106580413
2022-11-29T05:45:01.556Z,1007.4220215466936
2022-11-29T06:00:02.147Z,1007.5960983376879
2022-11-29T06:15:01.791Z,1007.7583689164362
2022-11-29T06:30:01.504Z,1007.9151493747926
2022-11-29T06:45:02.138Z,1008.0212769548339
2022-11-29T07:00:01.771Z,1008.2146053235177
2022-11-29T07:15:01.400Z,1008.350834089866
2022-11-29T07:30:02.015Z,1008.4928856706537
2022-11-29T07:45:01.612Z,1008.5262936490134
2022-11-29T08:00:01.229Z,1008.7287867141566
2022-11-29T08:15:02.145Z,1008.7990510267629
2022-11-29T08:30:01.815Z,1008.8112286734599
2022-11-29T08:45:01.424Z,1008.958714143317
2022-11-29T09:00:02.035Z,1009.0982587049951
2022-11-29T09:15:01.650Z,1009.2412818246582
2022-11-29T09:30:02.301Z,1009.3157482060551
2022-11-29T09:45:01.933Z,1009.4179549042578
2022-11-29T10:00:01.553Z,1009.6138009800546
2022-11-29T10:15:02.141Z,1009.6486628801329
2022-11-29T10:30:01.747Z,1009.5750708558801
2022-11-29T10:45:01.404Z,1009.6389219313866
2022-11-29T11:00:01.973Z,1009.651641239621
2022-11-29T11:15:01.594Z,1009.6762015335567
2022-11-29T11:30:02.233Z,1009.7459364372074
2022-11-29T11:45:02.291Z,1009.8144162421246
2022-11-29T12:00:06.759Z,1009.7976153146926
2022-11-29T12:15:01.925Z,1009.7668424900351
2022-11-29T12:30:01.598Z,1010.0219857226599
2022-11-29T12:45:02.214Z,1010.0683327265616
2022-11-29T13:00:01.875Z,1010.2342182981159
2022-11-29T13:15:01.790Z,1010.266609829546
2022-11-29T13:30:01.631Z,1010.3540117647213
2022-11-29T13:45:01.302Z,1010.36613395551
2022-11-29T14:00:01.937Z,1010.3965597550472
2022-11-29T14:15:01.567Z,1010.4860328847346
2022-11-29T14:30:01.236Z,1010.5302034418877
2022-11-29T14:45:01.902Z,1010.5396839903004
2022-11-29T15:00:01.523Z,1010.5742957569141
2022-11-29T15:15:01.163Z,1010.6620281646022
2022-11-29T15:30:01.955Z,1010.6375685090567
2022-11-29T15:45:01.637Z,1010.8439303752587
2022-11-29T16:00:01.269Z,1010.8681930363393
2022-11-29T16:15:02.203Z,1010.9667105088317
2022-11-29T16:30:01.916Z,1011.0938142208236
2022-11-29T16:45:01.544Z,1011.1565467051047
2022-11-29T17:00:02.170Z,1011.1224143220103
2022-11-29T17:15:01.806Z,1011.2210881357948
2022-11-29T17:30:01.502Z,1011.2186579165436
2022-11-29T17:45:02.150Z,1011.3599788603232
2022-11-29T18:00:01.777Z,1011.3632177159332
2022-11-29T18:15:01.416Z,1011.540047956375
2022-11-29T18:30:02.050Z,1011.5940302223095
2022-11-29T18:45:01.684Z,1011.6734391384352
2022-11-29T19:00:01.310Z,1011.6898025923816
2022-11-29T19:15:01.943Z,1011.8167269147791
2022-11-29T19:30:01.610Z,1011.8523053795392
2022-11-29T19:45:16.341Z,1011.9057540537419
2022-11-29T20:00:01.917Z,1012.1028672733078
2022-11-29T20:15:01.895Z,1012.2093502507455
2022-11-29T20:30:01.613Z,1012.386178024302
2022-11-29T20:45:02.250Z,1012.4161652828328
2022-11-29T21:00:01.906Z,1012.4872511526384
2022-11-29T21:15:01.556Z,1012.4936030399123
2022-11-29T21:30:02.179Z,1012.551086461961
2022-11-29T21:45:01.836Z,1012.6199077782279
2022-11-29T22:00:02.453Z,1012.6384870947533
2022-11-29T22:15:02.090Z,1012.7458938644739
2022-11-29T22:30:01.737Z,1012.7880168876378
2022-11-29T22:45:02.373Z,1012.9323945025993
2022-11-29T23:00:02.006Z,1012.9140505933607
2022-11-29T23:15:01.620Z,1012.9627956797053
2022-11-29T23:30:02.307Z,1013.0708065297919
2022-11-29T23:45:01.954Z,1013.0411222660421
